X  Fechar Dados meteorológicos de METAR da aviação     EHAM Amsterdam Airport Schiphol
Temperatura
46°F Temperatura
45°F Ponto de orvalho
93% Umidade



Vento
12 MPH
19 KM/H
5 M/S
10 NÓS



180°
S
Condições atuais

Parcialmente nublado Parcialmente nublado
Pressão 1016.93 (hPa) - 30.03 (inHg)
Visibilidade 6 (milha) - 9.7 (km)
Aeroporto
Código do aeroporto EHAM

Localização: Amsterdam Airport Schiphol
Distância: 34 (mi)

Metar:
EHAM 281925Z 18010KT 9999 FEW007 BKN016 BKN030 08/07 Q1017 NOSIG

Hora: 28-02-2024 20:25 CET